sensor_id;sensor_type;location;lat;lon;timestamp;pressure;altitude;pressure_sealevel;temperature;humidity
72438;BME280;60444;43.534;-5.674;2024-03-23T00:53:48;102736.47;;;13.99;100.00
72438;BME280;60444;43.534;-5.674;2024-03-23T00:56:14;102731.03;;;13.99;100.00
72438;BME280;60444;43.534;-5.674;2024-03-23T00:58:39;102732.53;;;14.09;100.00
72438;BME280;60444;43.534;-5.674;2024-03-23T01:01:05;102731.69;;;14.07;100.00
72438;BME280;60444;43.534;-5.674;2024-03-23T01:03:30;102731.50;;;14.13;100.00
72438;BME280;60444;43.534;-5.674;2024-03-23T01:06:02;102741.31;;;14.17;100.00
72438;BME280;60444;43.534;-5.674;2024-03-23T01:08:29;102728.78;;;14.12;100.00
72438;BME280;60444;43.534;-5.674;2024-03-23T01:13:21;102749.28;;;14.23;100.00
72438;BME280;60444;43.534;-5.674;2024-03-23T01:15:51;102741.03;;;14.26;100.00
72438;BME280;60444;43.534;-5.674;2024-03-23T01:18:17;102730.28;;;14.22;100.00
72438;BME280;60444;43.534;-5.674;2024-03-23T01:20:43;102747.25;;;14.31;100.00
72438;BME280;60444;43.534;-5.674;2024-03-23T01:23:09;102744.53;;;14.30;100.00
72438;BME280;60444;43.534;-5.674;2024-03-23T01:25:35;102737.34;;;14.29;100.00
72438;BME280;60444;43.534;-5.674;2024-03-23T01:28:01;102740.06;;;14.29;100.00
72438;BME280;60444;43.534;-5.674;2024-03-23T01:30:26;102749.91;;;14.33;100.00
72438;BME280;60444;43.534;-5.674;2024-03-23T01:32:52;102743.44;;;14.35;100.00
72438;BME280;60444;43.534;-5.674;2024-03-23T01:35:17;102746.16;;;14.37;100.00
72438;BME280;60444;43.534;-5.674;2024-03-23T01:37:43;102760.56;;;14.39;100.00
72438;BME280;60444;43.534;-5.674;2024-03-23T01:40:09;102755.13;;;14.39;100.00
72438;BME280;60444;43.534;-5.674;2024-03-23T01:42:34;102761.47;;;14.39;100.00
72438;BME280;60444;43.534;-5.674;2024-03-23T01:45:00;102753.41;;;14.36;100.00
72438;BME280;60444;43.534;-5.674;2024-03-23T01:47:26;102754.25;;;14.38;100.00
72438;BME280;60444;43.534;-5.674;2024-03-23T01:49:51;102756.13;;;14.36;100.00
72438;BME280;60444;43.534;-5.674;2024-03-23T01:52:17;102761.47;;;14.39;100.00
72438;BME280;60444;43.534;-5.674;2024-03-23T01:54:43;102759.69;;;14.38;100.00
72438;BME280;60444;43.534;-5.674;2024-03-23T01:57:10;102761.41;;;14.41;100.00
72438;BME280;60444;43.534;-5.674;2024-03-23T01:59:35;102760.53;;;14.40;100.00
72438;BME280;60444;43.534;-5.674;2024-03-23T02:02:01;102762.25;;;14.43;100.00
72438;BME280;60444;43.534;-5.674;2024-03-23T02:04:27;102769.50;;;14.44;100.00
72438;BME280;60444;43.534;-5.674;2024-03-23T02:06:52;102764.06;;;14.44;100.00
72438;BME280;60444;43.534;-5.674;2024-03-23T02:09:18;102750.81;;;14.32;100.00
72438;BME280;60444;43.534;-5.674;2024-03-23T02:11:43;102770.38;;;14.44;100.00
72438;BME280;60444;43.534;-5.674;2024-03-23T02:14:09;102764.06;;;14.44;100.00
72438;BME280;60444;43.534;-5.674;2024-03-23T02:16:34;102769.50;;;14.44;100.00
72438;BME280;60444;43.534;-5.674;2024-03-23T02:19:00;102771.25;;;14.45;100.00
72438;BME280;60444;43.534;-5.674;2024-03-23T02:21:25;102770.38;;;14.44;100.00
72438;BME280;60444;43.534;-5.674;2024-03-23T02:23:52;102770.38;;;14.44;100.00
72438;BME280;60444;43.534;-5.674;2024-03-23T02:26:18;102771.31;;;14.43;100.00
72438;BME280;60444;43.534;-5.674;2024-03-23T02:28:44;102759.69;;;14.38;100.00
72438;BME280;60444;43.534;-5.674;2024-03-23T02:31:09;102692.41;;;13.88;100.00
72438;BME280;60444;43.534;-5.674;2024-03-23T02:33:35;102728.75;;;14.13;100.00
72438;BME280;60444;43.534;-5.674;2024-03-23T02:36:03;102698.78;;;13.87;100.00
72438;BME280;60444;43.534;-5.674;2024-03-23T02:38:29;102716.69;;;13.94;100.00
72438;BME280;60444;43.534;-5.674;2024-03-23T02:40:55;102708.75;;;13.87;100.00
72438;BME280;60444;43.534;-5.674;2024-03-23T02:43:20;102724.09;;;13.89;100.00
72438;BME280;60444;43.534;-5.674;2024-03-23T02:45:46;102742.25;;;13.89;100.00
72438;BME280;60444;43.534;-5.674;2024-03-23T02:48:12;102754.66;;;13.97;100.00
72438;BME280;60444;43.534;-5.674;2024-03-23T02:50:38;102744.13;;;13.87;100.00
72438;BME280;60444;43.534;-5.674;2024-03-23T02:53:03;102763.00;;;13.93;100.00
72438;BME280;60444;43.534;-5.674;2024-03-23T02:55:29;102752.44;;;13.82;100.00
72438;BME280;60444;43.534;-5.674;2024-03-23T02:57:54;102794.56;;;13.98;100.00
72438;BME280;60444;43.534;-5.674;2024-03-23T03:00:21;102773.31;;;13.82;100.00
72438;BME280;60444;43.534;-5.674;2024-03-23T03:02:46;102781.63;;;13.77;100.00
72438;BME280;60444;43.534;-5.674;2024-03-23T03:05:12;102772.09;;;13.63;100.00
72438;BME280;60444;43.534;-5.674;2024-03-23T03:07:39;102741.81;;;13.45;100.00
72438;BME280;60444;43.534;-5.674;2024-03-23T03:10:06;102796.69;;;13.58;100.00
72438;BME280;60444;43.534;-5.674;2024-03-23T03:12:33;102800.44;;;13.54;100.00
72438;BME280;60444;43.534;-5.674;2024-03-23T03:14:59;102779.44;;;13.30;100.00
72438;BME280;60444;43.534;-5.674;2024-03-23T03:17:24;102794.84;;;13.29;100.00
72438;BME280;60444;43.534;-5.674;2024-03-23T03:19:50;102724.66;;;12.81;100.00
72438;BME280;60444;43.534;-5.674;2024-03-23T03:22:21;102789.28;;;13.00;100.00
72438;BME280;60444;43.534;-5.674;2024-03-23T03:24:47;102803.72;;;13.04;100.00
72438;BME280;60444;43.534;-5.674;2024-03-23T03:27:12;102793.41;;;12.83;100.00
72438;BME280;60444;43.534;-5.674;2024-03-23T03:29:38;102784.78;;;12.66;100.00
72438;BME280;60444;43.534;-5.674;2024-03-23T03:32:04;102773.44;;;12.50;100.00
72438;BME280;60444;43.534;-5.674;2024-03-23T03:34:29;102752.09;;;12.36;100.00
72438;BME280;60444;43.534;-5.674;2024-03-23T03:36:56;102785.50;;;12.38;100.00
72438;BME280;60444;43.534;-5.674;2024-03-23T03:39:21;102808.63;;;12.55;100.00
72438;BME280;60444;43.534;-5.674;2024-03-23T03:41:48;102800.00;;;12.37;100.00
72438;BME280;60444;43.534;-5.674;2024-03-23T03:44:14;102794.84;;;12.27;100.00
72438;BME280;60444;43.534;-5.674;2024-03-23T03:46:39;102816.47;;;12.30;100.00
72438;BME280;60444;43.534;-5.674;2024-03-23T03:49:05;102796.00;;;12.15;100.00
72438;BME280;60444;43.534;-5.674;2024-03-23T03:51:30;102768.41;;;11.98;100.00
72438;BME280;60444;43.534;-5.674;2024-03-23T03:53:57;102813.91;;;12.24;100.00
72438;BME280;60444;43.534;-5.674;2024-03-23T03:56:23;102822.97;;;12.23;100.00
72438;BME280;60444;43.534;-5.674;2024-03-23T03:58:49;102820.38;;;12.17;100.00
72438;BME280;60444;43.534;-5.674;2024-03-23T04:01:14;102804.25;;;12.12;100.00
72438;BME280;60444;43.534;-5.674;2024-03-23T04:03:40;102805.09;;;12.14;100.00
72438;BME280;60444;43.534;-5.674;2024-03-23T04:06:09;102763.94;;;11.96;100.00
72438;BME280;60444;43.534;-5.674;2024-03-23T04:08:35;102766.56;;;11.99;100.00
72438;BME280;60444;43.534;-5.674;2024-03-23T04:11:01;102778.25;;;12.02;100.00
72438;BME280;60444;43.534;-5.674;2024-03-23T04:13:27;102799.75;;;12.10;100.00
72438;BME280;60444;43.534;-5.674;2024-03-23T04:16:00;102823.78;;;12.26;100.00
72438;BME280;60444;43.534;-5.674;2024-03-23T04:18:25;102827.41;;;12.27;100.00
72438;BME280;60444;43.534;-5.674;2024-03-23T04:20:51;102809.53;;;12.17;100.00
72438;BME280;60444;43.534;-5.674;2024-03-23T04:23:17;102819.34;;;12.22;100.00
72438;BME280;60444;43.534;-5.674;2024-03-23T04:25:43;102812.06;;;12.24;100.00
72438;BME280;60444;43.534;-5.674;2024-03-23T04:28:08;102810.31;;;12.23;100.00
72438;BME280;60444;43.534;-5.674;2024-03-23T04:30:34;102805.91;;;12.18;100.00
72438;BME280;60444;43.534;-5.674;2024-03-23T04:32:59;102796.97;;;12.14;100.00
72438;BME280;60444;43.534;-5.674;2024-03-23T04:35:26;102808.50;;;12.22;100.00
72438;BME280;60444;43.534;-5.674;2024-03-23T04:37:52;102814.53;;;12.36;100.00
72438;BME280;60444;43.534;-5.674;2024-03-23T04:40:21;102815.47;;;12.34;100.00
72438;BME280;60444;43.534;-5.674;2024-03-23T04:42:46;102817.19;;;12.38;100.00
72438;BME280;60444;43.534;-5.674;2024-03-23T04:45:12;102817.09;;;12.41;100.00
72438;BME280;60444;43.534;-5.674;2024-03-23T04:47:38;102839.19;;;12.63;100.00
72438;BME280;60444;43.534;-5.674;2024-03-23T04:50:04;102826.69;;;12.56;100.00
72438;BME280;60444;43.534;-5.674;2024-03-23T04:52:30;102847.22;;;12.67;100.00
72438;BME280;60444;43.534;-5.674;2024-03-23T04:54:56;102837.41;;;12.62;100.00
72438;BME280;60444;43.534;-5.674;2024-03-23T04:57:22;102850.16;;;12.58;100.00
72438;BME280;60444;43.534;-5.674;2024-03-23T04:59:48;102821.53;;;12.45;100.00
72438;BME280;60444;43.534;-5.674;2024-03-23T05:02:14;102827.00;;;12.43;100.00
72438;BME280;60444;43.534;-5.674;2024-03-23T05:04:39;102828.63;;;12.50;100.00
72438;BME280;60444;43.534;-5.674;2024-03-23T05:07:07;102827.69;;;12.51;100.00
72438;BME280;60444;43.534;-5.674;2024-03-23T05:09:33;102834.47;;;12.71;100.00
72438;BME280;60444;43.534;-5.674;2024-03-23T05:11:59;102845.34;;;12.69;100.00
72438;BME280;60444;43.534;-5.674;2024-03-23T05:14:28;102836.22;;;12.72;100.00
72438;BME280;60444;43.534;-5.674;2024-03-23T05:16:53;102838.09;;;12.70;100.00
72438;BME280;60444;43.534;-5.674;2024-03-23T05:19:19;102822.03;;;12.61;100.00
72438;BME280;60444;43.534;-5.674;2024-03-23T05:21:44;102836.13;;;12.75;100.00
72438;BME280;60444;43.534;-5.674;2024-03-23T05:24:11;102798.66;;;12.55;100.00
72438;BME280;60444;43.534;-5.674;2024-03-23T05:26:37;102805.69;;;12.62;100.00
72438;BME280;60444;43.534;-5.674;2024-03-23T05:29:03;102810.03;;;12.71;100.00
72438;BME280;60444;43.534;-5.674;2024-03-23T05:31:30;102776.16;;;12.50;100.00
72438;BME280;60444;43.534;-5.674;2024-03-23T05:33:56;102819.66;;;12.82;100.00
72438;BME280;60444;43.534;-5.674;2024-03-23T05:36:22;102811.56;;;12.81;100.00
72438;BME280;60444;43.534;-5.674;2024-03-23T05:38:49;102797.31;;;12.71;100.00
72438;BME280;60444;43.534;-5.674;2024-03-23T05:41:14;102814.13;;;12.87;100.00
72438;BME280;60444;43.534;-5.674;2024-03-23T05:43:40;102823.69;;;13.00;100.00
72438;BME280;60444;43.534;-5.674;2024-03-23T05:46:05;102804.16;;;12.86;100.00
72438;BME280;60444;43.534;-5.674;2024-03-23T05:48:31;102822.03;;;12.96;100.00
72438;BME280;60444;43.534;-5.674;2024-03-23T05:50:57;102807.28;;;13.06;100.00
72438;BME280;60444;43.534;-5.674;2024-03-23T05:53:23;102801.59;;;12.81;100.00
72438;BME280;60444;43.534;-5.674;2024-03-23T05:55:50;102802.56;;;12.79;100.00
72438;BME280;60444;43.534;-5.674;2024-03-23T05:58:16;102803.31;;;12.84;100.00
72438;BME280;60444;43.534;-5.674;2024-03-23T06:00:43;102813.16;;;12.88;100.00
72438;BME280;60444;43.534;-5.674;2024-03-23T06:03:09;102825.84;;;12.89;100.00
72438;BME280;60444;43.534;-5.674;2024-03-23T06:05:36;102811.06;;;12.99;100.00
72438;BME280;60444;43.534;-5.674;2024-03-23T06:08:02;102773.63;;;12.78;100.00
72438;BME280;60444;43.534;-5.674;2024-03-23T06:10:28;102813.47;;;13.12;100.00
72438;BME280;60444;43.534;-5.674;2024-03-23T06:12:53;102827.75;;;13.19;100.00
72438;BME280;60444;43.534;-5.674;2024-03-23T06:15:19;102846.53;;;13.28;100.00
72438;BME280;60444;43.534;-5.674;2024-03-23T06:17:45;102824.09;;;13.20;100.00
72438;BME280;60444;43.534;-5.674;2024-03-23T06:20:10;102815.94;;;13.20;100.00
72438;BME280;60444;43.534;-5.674;2024-03-23T06:22:36;102842.69;;;13.35;100.00
72438;BME280;60444;43.534;-5.674;2024-03-23T06:25:02;102829.09;;;13.35;100.00
72438;BME280;60444;43.534;-5.674;2024-03-23T06:27:28;102820.00;;;13.36;100.00
72438;BME280;60444;43.534;-5.674;2024-03-23T06:29:54;102814.00;;;13.25;100.00
72438;BME280;60444;43.534;-5.674;2024-03-23T06:32:20;102792.53;;;13.16;100.00
72438;BME280;60444;43.534;-5.674;2024-03-23T06:34:46;102828.00;;;13.42;100.00
72438;BME280;60444;43.534;-5.674;2024-03-23T06:37:12;102781.66;;;13.16;100.00
72438;BME280;60444;43.534;-5.674;2024-03-23T06:39:38;102810.75;;;13.43;100.00
72438;BME280;60444;43.534;-5.674;2024-03-23T06:42:04;102794.75;;;13.32;100.00
72438;BME280;60444;43.534;-5.674;2024-03-23T06:44:30;102793.78;;;13.35;100.00
72438;BME280;60444;43.534;-5.674;2024-03-23T06:46:57;102751.78;;;13.14;100.00
72438;BME280;60444;43.534;-5.674;2024-03-23T06:49:23;102746.53;;;13.08;100.00
72438;BME280;60444;43.534;-5.674;2024-03-23T06:51:49;102802.72;;;13.38;100.00
72438;BME280;60444;43.534;-5.674;2024-03-23T06:54:14;102753.75;;;13.09;100.00
72438;BME280;60444;43.534;-5.674;2024-03-23T06:56:40;102819.72;;;13.46;100.00
72438;BME280;60444;43.534;-5.674;2024-03-23T06:59:06;102773.31;;;13.22;100.00
72438;BME280;60444;43.534;-5.674;2024-03-23T07:01:32;102821.28;;;13.55;100.00
72438;BME280;60444;43.534;-5.674;2024-03-23T07:03:57;102744.69;;;13.09;100.00
72438;BME280;60444;43.534;-5.674;2024-03-23T07:06:23;102802.34;;;13.52;100.00
72438;BME280;60444;43.534;-5.674;2024-03-23T07:08:48;102777.38;;;13.38;100.00
72438;BME280;60444;43.534;-5.674;2024-03-23T07:11:24;102818.56;;;13.55;100.00
72438;BME280;60444;43.534;-5.674;2024-03-23T07:13:51;102793.94;;;13.29;100.00
72438;BME280;60444;43.534;-5.674;2024-03-23T07:16:17;102821.31;;;13.53;100.00
72438;BME280;60444;43.534;-5.674;2024-03-23T07:18:43;102762.53;;;13.19;100.00
72438;BME280;60444;43.534;-5.674;2024-03-23T07:21:08;102751.56;;;13.22;100.00
72438;BME280;60444;43.534;-5.674;2024-03-23T07:23:34;102764.94;;;13.29;100.00
72438;BME280;60444;43.534;-5.674;2024-03-23T07:26:04;102789.94;;;13.42;100.00
72438;BME280;60444;43.534;-5.674;2024-03-23T07:28:33;102750.66;;;13.23;100.00
72438;BME280;60444;43.534;-5.674;2024-03-23T07:33:28;102808.53;;;13.57;100.00
72438;BME280;60444;43.534;-5.674;2024-03-23T07:35:54;102804.00;;;13.56;100.00
72438;BME280;60444;43.534;-5.674;2024-03-23T07:38:20;102783.47;;;13.46;100.00
72438;BME280;60444;43.534;-5.674;2024-03-23T07:40:45;102755.63;;;13.38;100.00
72438;BME280;60444;43.534;-5.674;2024-03-23T07:43:11;102780.59;;;13.52;100.00
72438;BME280;60444;43.534;-5.674;2024-03-23T07:45:37;102794.09;;;13.55;100.00
72438;BME280;60444;43.534;-5.674;2024-03-23T07:48:04;102789.56;;;13.56;100.00
72438;BME280;60444;43.534;-5.674;2024-03-23T07:50:29;102813.41;;;13.75;100.00
72438;BME280;60444;43.534;-5.674;2024-03-23T07:52:55;102799.91;;;13.72;100.00
72438;BME280;60444;43.534;-5.674;2024-03-23T07:55:20;102819.72;;;13.77;100.00
72438;BME280;60444;43.534;-5.674;2024-03-23T07:57:46;102793.75;;;13.66;100.00
72438;BME280;60444;43.534;-5.674;2024-03-23T08:00:12;102805.34;;;13.72;100.00
72438;BME280;60444;43.534;-5.674;2024-03-23T08:02:38;102762.00;;;13.37;100.00
72438;BME280;60444;43.534;-5.674;2024-03-23T08:05:04;102796.25;;;13.73;100.00
72438;BME280;60444;43.534;-5.674;2024-03-23T08:07:31;102767.53;;;13.63;100.00
72438;BME280;60444;43.534;-5.674;2024-03-23T08:09:56;102790.63;;;13.79;100.00
72438;BME280;60444;43.534;-5.674;2024-03-23T08:12:24;102744.41;;;13.48;100.00
72438;BME280;60444;43.534;-5.674;2024-03-23T08:14:49;102803.56;;;13.71;100.00
72438;BME280;60444;43.534;-5.674;2024-03-23T08:17:15;102812.28;;;13.82;100.00
72438;BME280;60444;43.534;-5.674;2024-03-23T08:19:40;102809.25;;;13.93;100.00
72438;BME280;60444;43.534;-5.674;2024-03-23T08:22:06;102777.44;;;13.66;100.00
72438;BME280;60444;43.534;-5.674;2024-03-23T08:24:32;102797.50;;;13.62;100.00
72438;BME280;60444;43.534;-5.674;2024-03-23T08:26:57;102783.69;;;13.69;100.00
72438;BME280;60444;43.534;-5.674;2024-03-23T08:29:23;102742.13;;;13.35;100.00
72438;BME280;60444;43.534;-5.674;2024-03-23T08:31:48;102764.44;;;13.46;100.00
72438;BME280;60444;43.534;-5.674;2024-03-23T08:34:14;102746.72;;;13.33;100.00
72438;BME280;60444;43.534;-5.674;2024-03-23T08:36:39;102732.53;;;13.22;100.00
72438;BME280;60444;43.534;-5.674;2024-03-23T08:39:05;102787.91;;;13.50;100.00
72438;BME280;60444;43.534;-5.674;2024-03-23T08:41:30;102763.69;;;13.41;100.00
72438;BME280;60444;43.534;-5.674;2024-03-23T08:43:56;102723.75;;;13.14;100.00
72438;BME280;60444;43.534;-5.674;2024-03-23T08:46:21;102796.91;;;13.52;100.00
72438;BME280;60444;43.534;-5.674;2024-03-23T08:48:47;102762.91;;;13.37;100.00
72438;BME280;60444;43.534;-5.674;2024-03-23T08:51:15;102689.44;;;13.10;100.00
72438;BME280;60444;43.534;-5.674;2024-03-23T08:53:42;102723.53;;;13.20;100.00
72438;BME280;60444;43.534;-5.674;2024-03-23T08:56:08;102782.25;;;13.56;100.00
72438;BME280;60444;43.534;-5.674;2024-03-23T08:58:35;102739.09;;;13.45;100.00
72438;BME280;60444;43.534;-5.674;2024-03-23T09:03:30;102768.31;;;13.68;100.00
72438;BME280;60444;43.534;-5.674;2024-03-23T09:05:56;102747.44;;;13.69;100.00
72438;BME280;60444;43.534;-5.674;2024-03-23T09:08:23;102764.63;;;13.69;100.00
72438;BME280;60444;43.534;-5.674;2024-03-23T09:10:49;102756.44;;;13.71;100.00
72438;BME280;60444;43.534;-5.674;2024-03-23T09:13:14;102712.63;;;13.50;100.00
72438;BME280;60444;43.534;-5.674;2024-03-23T09:15:51;102761.28;;;13.89;100.00
72438;BME280;60444;43.534;-5.674;2024-03-23T09:18:22;102699.66;;;13.60;100.00
72438;BME280;60444;43.534;-5.674;2024-03-23T09:20:47;102738.97;;;13.79;100.00
72438;BME280;60444;43.534;-5.674;2024-03-23T09:23:13;102732.50;;;13.82;100.00
72438;BME280;60444;43.534;-5.674;2024-03-23T09:25:39;102744.22;;;13.84;100.00
72438;BME280;60444;43.534;-5.674;2024-03-23T09:28:05;102717.50;;;13.70;100.00
72438;BME280;60444;43.534;-5.674;2024-03-23T09:30:32;102750.28;;;13.93;100.00
72438;BME280;60444;43.534;-5.674;2024-03-23T09:32:58;102753.63;;;14.01;100.00
72438;BME280;60444;43.534;-5.674;2024-03-23T09:35:24;102732.09;;;13.95;100.00
72438;BME280;60444;43.534;-5.674;2024-03-23T09:37:50;102712.56;;;13.81;100.00
72438;BME280;60444;43.534;-5.674;2024-03-23T09:40:15;102747.31;;;14.01;100.00
72438;BME280;60444;43.534;-5.674;2024-03-23T09:42:41;102732.47;;;13.83;100.00
72438;BME280;60444;43.534;-5.674;2024-03-23T09:45:27;102754.34;;;14.08;100.00
72438;BME280;60444;43.534;-5.674;2024-03-23T09:47:54;102695.63;;;13.73;100.00
72438;BME280;60444;43.534;-5.674;2024-03-23T09:50:21;102728.03;;;13.81;100.00
72438;BME280;60444;43.534;-5.674;2024-03-23T09:52:46;102722.81;;;13.73;100.00
72438;BME280;60444;43.534;-5.674;2024-03-23T09:55:12;102702.28;;;13.63;100.00
72438;BME280;60444;43.534;-5.674;2024-03-23T09:57:39;102651.47;;;13.37;100.00
72438;BME280;60444;43.534;-5.674;2024-03-23T10:00:05;102731.31;;;13.90;100.00
72438;BME280;60444;43.534;-5.674;2024-03-23T10:02:32;102698.16;;;13.79;100.00
72438;BME280;60444;43.534;-5.674;2024-03-23T10:04:59;102772.50;;;14.07;100.00
72438;BME280;60444;43.534;-5.674;2024-03-23T10:07:25;102722.47;;;13.84;100.00
72438;BME280;60444;43.534;-5.674;2024-03-23T10:09:51;102739.19;;;13.99;100.00
72438;BME280;60444;43.534;-5.674;2024-03-23T10:12:18;102702.59;;;13.82;100.00
72438;BME280;60444;43.534;-5.674;2024-03-23T10:14:44;102665.81;;;13.70;100.00
72438;BME280;60444;43.534;-5.674;2024-03-23T10:17:18;102745.56;;;14.27;100.00
72438;BME280;60444;43.534;-5.674;2024-03-23T10:19:45;102726.66;;;14.21;100.00
72438;BME280;60444;43.534;-5.674;2024-03-23T10:22:17;102745.38;;;14.32;100.00
72438;BME280;60444;43.534;-5.674;2024-03-23T10:24:43;102715.19;;;14.12;100.00
72438;BME280;60444;43.534;-5.674;2024-03-23T10:27:09;102719.97;;;14.33;100.00
72438;BME280;60444;43.534;-5.674;2024-03-23T10:29:34;102750.16;;;14.51;100.00
72438;BME280;60444;43.534;-5.674;2024-03-23T10:32:13;102735.91;;;14.43;100.00
72438;BME280;60444;43.534;-5.674;2024-03-23T10:34:40;102757.22;;;14.57;100.00
72438;BME280;60444;43.534;-5.674;2024-03-23T10:37:06;102741.41;;;14.68;100.00
72438;BME280;60444;43.534;-5.674;2024-03-23T10:39:39;102742.88;;;14.78;100.00
72438;BME280;60444;43.534;-5.674;2024-03-23T10:42:06;102740.22;;;14.77;100.00
72438;BME280;60444;43.534;-5.674;2024-03-23T10:44:33;102751.81;;;14.82;100.00
72438;BME280;60444;43.534;-5.674;2024-03-23T10:47:00;102719.91;;;14.85;100.00
72438;BME280;60444;43.534;-5.674;2024-03-23T10:49:33;102709.50;;;14.72;100.00
72438;BME280;60444;43.534;-5.674;2024-03-23T10:52:03;102713.06;;;14.74;100.00
72438;BME280;60444;43.534;-5.674;2024-03-23T10:54:30;102708.66;;;14.70;100.00
72438;BME280;60444;43.534;-5.674;2024-03-23T10:57:09;102712.44;;;14.90;100.00
72438;BME280;60444;43.534;-5.674;2024-03-23T10:59:37;102709.59;;;14.93;100.00
72438;BME280;60444;43.534;-5.674;2024-03-23T11:02:03;102684.09;;;14.71;100.00
72438;BME280;60444;43.534;-5.674;2024-03-23T11:04:36;102696.22;;;14.87;100.00
72438;BME280;60444;43.534;-5.674;2024-03-23T11:09:51;102699.00;;;14.86;100.00
72438;BME280;60444;43.534;-5.674;2024-03-23T11:14:54;102712.91;;;14.78;100.00
72438;BME280;60444;43.534;-5.674;2024-03-23T11:17:24;102715.84;;;14.72;100.00
72438;BME280;60444;43.534;-5.674;2024-03-23T11:19:54;102694.44;;;14.62;100.00
72438;BME280;60444;43.534;-5.674;2024-03-23T11:25:03;102694.63;;;14.55;100.00
72438;BME280;60444;43.534;-5.674;2024-03-23T11:27:29;102683.16;;;14.47;100.00
72438;BME280;60444;43.534;-5.674;2024-03-23T11:30:12;102690.69;;;14.39;100.00
72438;BME280;60444;43.534;-5.674;2024-03-23T11:32:37;102681.00;;;14.31;100.00
72438;BME280;60444;43.534;-5.674;2024-03-23T11:35:03;102708.28;;;14.29;100.00
72438;BME280;60444;43.534;-5.674;2024-03-23T11:37:29;102708.22;;;14.31;100.00
72438;BME280;60444;43.534;-5.674;2024-03-23T11:39:54;102695.59;;;14.28;100.00
72438;BME280;60444;43.534;-5.674;2024-03-23T11:42:20;102688.22;;;14.32;100.00
72438;BME280;60444;43.534;-5.674;2024-03-23T11:44:47;102692.69;;;14.34;100.00
72438;BME280;60444;43.534;-5.674;2024-03-23T11:47:12;102671.38;;;14.19;100.00
72438;BME280;60444;43.534;-5.674;2024-03-23T11:49:38;102700.91;;;14.33;100.00
72438;BME280;60444;43.534;-5.674;2024-03-23T11:52:06;102680.28;;;14.24;100.00
72438;BME280;60444;43.534;-5.674;2024-03-23T11:54:33;102681.91;;;14.31;100.00
72438;BME280;60444;43.534;-5.674;2024-03-23T11:57:04;102678.34;;;14.29;100.00
72438;BME280;60444;43.534;-5.674;2024-03-23T11:59:40;102691.13;;;14.27;100.00
72438;BME280;60444;43.534;-5.674;2024-03-23T12:02:13;102667.63;;;14.23;100.00
72438;BME280;60444;43.534;-5.674;2024-03-23T12:04:45;102662.59;;;14.11;100.00
72438;BME280;60444;43.534;-5.674;2024-03-23T12:09:43;102669.34;;;14.26;100.00
72438;BME280;60444;43.534;-5.674;2024-03-23T12:12:18;102683.88;;;14.26;100.00
72438;BME280;60444;43.534;-5.674;2024-03-23T12:15:06;102661.09;;;14.29;100.00
72438;BME280;60444;43.534;-5.674;2024-03-23T12:17:37;102651.28;;;14.23;100.00
72438;BME280;60444;43.534;-5.674;2024-03-23T12:20:03;102597.88;;;13.95;100.00
72438;BME280;60444;43.534;-5.674;2024-03-23T12:25:03;102655.94;;;14.46;100.00
72438;BME280;60444;43.534;-5.674;2024-03-23T12:30:00;102626.88;;;14.46;100.00
72438;BME280;60444;43.534;-5.674;2024-03-23T12:32:27;102639.78;;;14.66;100.00
72438;BME280;60444;43.534;-5.674;2024-03-23T12:34:53;102611.94;;;14.58;100.00
72438;BME280;60444;43.534;-5.674;2024-03-23T12:37:18;102634.72;;;14.80;100.00
72438;BME280;60444;43.534;-5.674;2024-03-23T12:39:44;102618.88;;;14.67;100.00
72438;BME280;60444;43.534;-5.674;2024-03-23T12:42:13;102585.38;;;14.65;100.00
72438;BME280;60444;43.534;-5.674;2024-03-23T12:44:40;102604.97;;;14.74;100.00
72438;BME280;60444;43.534;-5.674;2024-03-23T12:47:05;102580.63;;;14.70;100.00
72438;BME280;60444;43.534;-5.674;2024-03-23T12:49:31;102610.97;;;14.84;100.00
72438;BME280;60444;43.534;-5.674;2024-03-23T12:51:57;102597.94;;;14.92;100.00
72438;BME280;60444;43.534;-5.674;2024-03-23T12:54:23;102590.38;;;15.00;100.00
72438;BME280;60444;43.534;-5.674;2024-03-23T12:56:49;102613.38;;;14.91;100.00
72438;BME280;60444;43.534;-5.674;2024-03-23T12:59:15;102583.00;;;14.79;100.00
72438;BME280;60444;43.534;-5.674;2024-03-23T13:01:41;102599.00;;;14.88;100.00
72438;BME280;60444;43.534;-5.674;2024-03-23T13:04:07;102620.94;;;15.08;100.00
72438;BME280;60444;43.534;-5.674;2024-03-23T13:06:33;102602.91;;;15.04;100.00
72438;BME280;60444;43.534;-5.674;2024-03-23T13:09:05;102580.47;;;14.97;100.00
72438;BME280;60444;43.534;-5.674;2024-03-23T13:11:31;102566.44;;;14.85;100.00
72438;BME280;60444;43.534;-5.674;2024-03-23T13:13:57;102606.00;;;15.18;100.00
72438;BME280;60444;43.534;-5.674;2024-03-23T13:16:23;102582.19;;;15.00;100.00
72438;BME280;60444;43.534;-5.674;2024-03-23T13:18:49;102577.25;;;15.09;100.00
72438;BME280;60444;43.534;-5.674;2024-03-23T13:21:15;102587.91;;;15.15;100.00
72438;BME280;60444;43.534;-5.674;2024-03-23T13:23:48;102567.25;;;15.10;100.00
72438;BME280;60444;43.534;-5.674;2024-03-23T13:26:15;102546.09;;;14.93;100.00
72438;BME280;60444;43.534;-5.674;2024-03-23T13:28:41;102603.78;;;15.27;100.00
72438;BME280;60444;43.534;-5.674;2024-03-23T13:31:06;102600.28;;;15.24;100.00
72438;BME280;60444;43.534;-5.674;2024-03-23T13:33:33;102588.28;;;15.06;100.00
72438;BME280;60444;43.534;-5.674;2024-03-23T13:35:59;102560.19;;;15.04;100.00
72438;BME280;60444;43.534;-5.674;2024-03-23T13:38:25;102578.81;;;15.16;100.00
72438;BME280;60444;43.534;-5.674;2024-03-23T13:40:57;102588.31;;;15.28;100.00
72438;BME280;60444;43.534;-5.674;2024-03-23T13:43:24;102589.00;;;15.33;100.00